Time;durP1;ratioP1;P1;durP2;ratioP2;P2;SDS_P1;SDS_P2;PMS_P1;PMS_P2;Temp;Humidity;BMP_temperature;BMP_pressure;BME280_temperature;BME280_humidity;BME280_pressure;Samples;Min_cycle;Max_cycle;Signal;HPM_P1;HPM_P2
2023/05/11 00:00:11;;;;;;;;;;;;;;;;;;4959398;28;19922;-91
2023/05/11 00:02:37;;;;;;;;;;;;;;;;;;4959604;28;19996;-91
2023/05/11 00:05:03;;;;;;;;;;;;;;;;;;4960002;28;19926;-91
2023/05/11 00:07:28;;;;;;;;;;;;;;;;;;4959564;28;19933;-91
2023/05/11 00:09:54;;;;;;;;;;;;;;;;;;4959649;28;20012;-91
2023/05/11 00:12:20;;;;;;;;;;;;;;;;;;4959302;28;19922;-91
2023/05/11 00:14:46;;;;;;;;;;;;;;;;;;4959733;28;19925;-91
2023/05/11 00:17:12;;;;;;;;;;;;;;;;;;4958862;28;19922;-90
2023/05/11 00:19:38;;;;;;;;;;;;;;;;;;4959082;28;20343;-93
2023/05/11 00:22:04;;;;;;;;;;;;;;;;;;4958608;28;20017;-91
2023/05/11 00:24:30;;;;;;;;;;;;;;;;;;4958394;28;20393;-90
2023/05/11 00:26:56;;;;;;;;;;;;;;;;;;4958919;28;19949;-91
2023/05/11 00:29:21;;;;;;;;;;;;;;;;;;4975118;28;19929;-91
2023/05/11 00:31:48;;;;;;;;;;;;;;;;;;4958880;28;19922;-90
2023/05/11 00:34:14;;;;;;;;;;;;;;;;;;4958854;28;20012;-91
2023/05/11 00:36:41;;;;;;;;;;;;;;;;;;4958853;28;19946;-91
2023/05/11 00:39:07;;;;;;;;;;;;;;;;;;4958783;28;19973;-91
2023/05/11 00:41:33;;;;;;;;;;;;;;;;;;4958652;28;20024;-91
2023/05/11 00:43:59;;;;;;;;;;;;;;;;;;4958753;28;19926;-91
2023/05/11 00:46:26;;;;;;;;;;;;;;;;;;4958523;28;20008;-91
2023/05/11 00:48:52;;;;;;;;;;;;;;;;;;4959012;28;19922;-91
2023/05/11 00:51:18;;;;;;;;;;;;;;;;;;4958716;28;19922;-91
2023/05/11 00:53:44;;;;;;;;;;;;;;;;;;4974570;28;19922;-91
2023/05/11 00:56:10;;;;;;;;;;;;;;;;;;4958505;28;19980;-90
2023/05/11 00:58:36;;;;;;;;;;;;;;;;;;4958358;28;19945;-91
2023/05/11 01:01:02;;;;;;;;;;;;;;;;;;4957903;28;20346;-90
2023/05/11 01:03:28;;;;;;;;;;;;;;;;;;4958408;28;19929;-90
2023/05/11 01:05:54;;;;;;;;;;;;;;;;;;4958378;28;19929;-90
2023/05/11 01:08:20;;;;;;;;;;;;;;;;;;4957622;28;20399;-90
2023/05/11 01:10:46;;;;;;;;;;;;;;;;;;4973857;28;19989;-90
2023/05/11 01:13:11;;;;;;;;;;;;;;;;;;4958133;28;19922;-91
2023/05/11 01:15:39;;;;;;;;;;;;;;;;;;4958064;28;20383;-90
2023/05/11 01:18:05;;;;;;;;;;;;;;;;;;4958009;28;20564;-91
2023/05/11 01:20:31;;;;;;;;;;;;;;;;;;4957897;28;20045;-91
2023/05/11 01:22:56;;;;;;;;;;;;;;;;;;4973828;28;20009;-90
2023/05/11 01:25:22;;;;;;;;;;;;;;;;;;4957909;28;19926;-89
2023/05/11 01:27:50;;;;;;;;;;;;;;;;;;4957804;28;20283;-90
2023/05/11 01:30:16;;;;;;;;;;;;;;;;;;4957631;28;19992;-90
2023/05/11 01:32:42;;;;;;;;;;;;;;;;;;4957548;28;20438;-90
2023/05/11 01:35:08;;;;;;;;;;;;;;;;;;4973015;28;20020;-90
2023/05/11 01:37:34;;;;;;;;;;;;;;;;;;4957119;28;19930;-90
2023/05/11 01:39:59;;;;;;;;;;;;;;;;;;4957521;28;19955;-90
2023/05/11 01:42:25;;;;;;;;;;;;;;;;;;4957427;28;19969;-90
2023/05/11 01:44:51;;;;;;;;;;;;;;;;;;4973820;28;20016;-90
2023/05/11 01:47:17;;;;;;;;;;;;;;;;;;4957926;28;19928;-91
2023/05/11 01:49:43;;;;;;;;;;;;;;;;;;4957468;28;20008;-90
2023/05/11 01:52:09;;;;;;;;;;;;;;;;;;4973694;28;20322;-90
2023/05/11 01:54:35;;;;;;;;;;;;;;;;;;4973419;28;19976;-90
2023/05/11 01:57:01;;;;;;;;;;;;;;;;;;4957399;28;19922;-91
2023/05/11 01:59:27;;;;;;;;;;;;;;;;;;4957079;28;19956;-90
2023/05/11 02:01:53;;;;;;;;;;;;;;;;;;4973235;28;19929;-90
2023/05/11 02:04:19;;;;;;;;;;;;;;;;;;4957563;28;19929;-91
2023/05/11 02:06:45;;;;;;;;;;;;;;;;;;4957265;28;20359;-90
2023/05/11 02:09:11;;;;;;;;;;;;;;;;;;4957222;28;19967;-91
2023/05/11 02:11:37;;;;;;;;;;;;;;;;;;4957204;28;19976;-91
2023/05/11 02:14:03;;;;;;;;;;;;;;;;;;4957238;28;19926;-91
2023/05/11 02:16:28;;;;;;;;;;;;;;;;;;4957227;28;19928;-91
2023/05/11 02:18:54;;;;;;;;;;;;;;;;;;4957101;28;19977;-91
2023/05/11 02:21:20;;;;;;;;;;;;;;;;;;4956919;28;19926;-91
2023/05/11 02:23:46;;;;;;;;;;;;;;;;;;4957019;28;19961;-91
2023/05/11 02:26:12;;;;;;;;;;;;;;;;;;4957145;28;19926;-90
2023/05/11 02:28:38;;;;;;;;;;;;;;;;;;4957070;28;19929;-91
2023/05/11 02:31:04;;;;;;;;;;;;;;;;;;4956474;28;19978;-91
2023/05/11 02:33:30;;;;;;;;;;;;;;;;;;4957300;28;19922;-91
2023/05/11 02:35:56;;;;;;;;;;;;;;;;;;4956608;28;20382;-91
2023/05/11 02:38:22;;;;;;;;;;;;;;;;;;4956696;28;19933;-91
2023/05/11 02:40:48;;;;;;;;;;;;;;;;;;4956592;28;19929;-90
2023/05/11 02:43:13;;;;;;;;;;;;;;;;;;4956176;28;19929;-90
2023/05/11 02:45:39;;;;;;;;;;;;;;;;;;4957009;28;20009;-90
2023/05/11 02:48:05;;;;;;;;;;;;;;;;;;4960581;28;19922;-90
2023/05/11 02:50:31;;;;;;;;;;;;;;;;;;4960378;28;19922;-89
2023/05/11 02:52:57;;;;;;;;;;;;;;;;;;4960663;28;20020;-90
2023/05/11 02:55:23;;;;;;;;;;;;;;;;;;4960804;28;19926;-90
2023/05/11 02:57:49;;;;;;;;;;;;;;;;;;4960273;28;19926;-90
2023/05/11 03:00:16;;;;;;;;;;;;;;;;;;4960776;28;19969;-90
2023/05/11 03:02:42;;;;;;;;;;;;;;;;;;4960625;28;19926;-91
2023/05/11 03:05:08;;;;;;;;;;;;;;;;;;4976476;28;20295;-91
2023/05/11 03:07:34;;;;;;;;;;;;;;;;;;4960247;28;19925;-91
2023/05/11 03:10:00;;;;;;;;;;;;;;;;;;4976365;28;19922;-90
2023/05/11 03:12:30;;;;;;;;;;;;;;;;;;4960407;28;19960;-91
2023/05/11 03:14:56;;;;;;;;;;;;;;;;;;4960283;28;19926;-89
2023/05/11 03:17:22;;;;;;;;;;;;;;;;;;4960126;28;19922;-90
2023/05/11 03:19:48;;;;;;;;;;;;;;;;;;4960083;28;19929;-90
2023/05/11 03:22:13;;;;;;;;;;;;;;;;;;4976459;28;20076;-91
2023/05/11 03:24:39;;;;;;;;;;;;;;;;;;4960552;28;19929;-90
2023/05/11 03:27:05;;;;;;;;;;;;;;;;;;4960129;28;20016;-91
2023/05/11 03:29:31;;;;;;;;;;;;;;;;;;4960116;28;20000;-91
2023/05/11 03:31:57;;;;;;;;;;;;;;;;;;4960144;28;19922;-91
2023/05/11 03:34:23;;;;;;;;;;;;;;;;;;4959991;28;19933;-90
2023/05/11 03:36:49;;;;;;;;;;;;;;;;;;4960122;28;19930;-91
2023/05/11 03:39:15;;;;;;;;;;;;;;;;;;4959523;28;19930;-91
2023/05/11 03:41:41;;;;;;;;;;;;;;;;;;4959900;28;19930;-91
2023/05/11 03:44:07;;;;;;;;;;;;;;;;;;4959889;28;20412;-91
2023/05/11 03:46:34;;;;;;;;;;;;;;;;;;4959643;28;20413;-90
2023/05/11 03:49:00;;;;;;;;;;;;;;;;;;4959837;28;20009;-91
2023/05/11 03:51:26;;;;;;;;;;;;;;;;;;4959876;28;20041;-90
2023/05/11 03:53:52;;;;;;;;;;;;;;;;;;4960226;28;19926;-91
2023/05/11 03:56:18;;;;;;;;;;;;;;;;;;4959687;28;19922;-90
2023/05/11 03:58:43;;;;;;;;;;;;;;;;;;4959740;28;19933;-91
2023/05/11 04:01:09;;;;;;;;;;;;;;;;;;4959708;28;20291;-90
2023/05/11 04:03:35;;;;;;;;;;;;;;;;;;4954347;28;20005;-90
2023/05/11 04:06:01;;;;;;;;;;;;;;;;;;4953319;28;20330;-90
2023/05/11 04:08:27;;;;;;;;;;;;;;;;;;4957515;28;19929;-91
2023/05/11 04:10:53;;;;;;;;;;;;;;;;;;4948873;28;20371;-91
2023/05/11 04:13:19;;;;;;;;;;;;;;;;;;4950556;28;19969;-91
2023/05/11 04:15:45;;;;;;;;;;;;;;;;;;4947928;28;19926;-90
2023/05/11 04:18:11;;;;;;;;;;;;;;;;;;4955045;29;20277;-91
2023/05/11 04:20:37;;;;;;;;;;;;;;;;;;4947670;28;20058;-91
2023/05/11 04:23:02;;;;;;;;;;;;;;;;;;4947514;28;20350;-91
2023/05/11 04:25:29;;;;;;;;;;;;;;;;;;4947507;29;19922;-91
2023/05/11 04:27:54;;;;;;;;;;;;;;;;;;4952840;28;19923;-90
2023/05/11 04:30:20;;;;;;;;;;;;;;;;;;4949655;28;19929;-90
2023/05/11 04:32:46;;;;;;;;;;;;;;;;;;4947205;28;19976;-92
2023/05/11 04:35:12;;;;;;;;;;;;;;;;;;4947927;28;19922;-92
2023/05/11 04:37:38;;;;;;;;;;;;;;;;;;4970608;28;19968;-91
2023/05/11 04:40:04;;;;;;;;;;;;;;;;;;4947840;28;19945;-92
2023/05/11 04:42:30;;;;;;;;;;;;;;;;;;4951335;28;19922;-92
2023/05/11 04:44:56;;;;;;;;;;;;;;;;;;4949066;28;19927;-91
2023/05/11 04:47:22;;;;;;;;;;;;;;;;;;4966382;28;20295;-91
2023/05/11 04:49:48;;;;;;;;;;;;;;;;;;4956433;28;20298;-92
2023/05/11 04:52:14;;;;;;;;;;;;;;;;;;4966395;28;19950;-92
2023/05/11 04:54:40;;;;;;;;;;;;;;;;;;4947039;28;20012;-92
2023/05/11 04:57:05;;;;;;;;;;;;;;;;;;4963408;28;19945;-92
2023/05/11 04:59:32;;;;;;;;;;;;;;;;;;4949514;28;19934;-92
2023/05/11 05:01:58;;;;;;;;;;;;;;;;;;4958076;28;19950;-92
2023/05/11 05:04:24;;;;;;;;;;;;;;;;;;4948472;28;19922;-91
2023/05/11 05:06:50;;;;;;;;;;;;;;;;;;4964349;28;19937;-92
2023/05/11 05:09:15;;;;;;;;;;;;;;;;;;4948962;28;19958;-92
2023/05/11 05:11:41;;;;;;;;;;;;;;;;;;4946906;28;19981;-92
2023/05/11 05:14:07;;;;;;;;;;;;;;;;;;4950591;28;19932;-92
2023/05/11 05:16:33;;;;;;;;;;;;;;;;;;4947081;28;19934;-92
2023/05/11 05:18:59;;;;;;;;;;;;;;;;;;4969196;28;20408;-92
2023/05/11 05:21:25;;;;;;;;;;;;;;;;;;4949946;28;20379;-91
2023/05/11 05:23:51;;;;;;;;;;;;;;;;;;4950078;28;19966;-91
2023/05/11 05:26:17;;;;;;;;;;;;;;;;;;4949853;28;19922;-92
2023/05/11 05:28:43;;;;;;;;;;;;;;;;;;4949457;28;19922;-91
2023/05/11 05:31:08;;;;;;;;;;;;;;;;;;4946460;29;19923;-90
2023/05/11 05:33:34;;;;;;;;;;;;;;;;;;4949965;28;19922;-91
2023/05/11 05:36:00;;;;;;;;;;;;;;;;;;4945963;28;20008;-92
2023/05/11 05:38:26;;;;;;;;;;;;;;;;;;4945410;28;19938;-91
2023/05/11 05:40:52;;;;;;;;;;;;;;;;;;4951928;28;20370;-92
2023/05/11 05:43:18;;;;;;;;;;;;;;;;;;4948449;28;19926;-92
2023/05/11 05:45:44;;;;;;;;;;;;;;;;;;4948640;28;19921;-91
2023/05/11 05:48:10;;;;;;;;;;;;;;;;;;4946469;28;20009;-89
2023/05/11 05:50:36;;;;;;;;;;;;;;;;;;4949189;28;19926;-90
2023/05/11 05:53:02;;;;;;;;;;;;;;;;;;4943292;29;19922;-91
2023/05/11 05:55:28;;;;;;;;;;;;;;;;;;4943668;29;19923;-95
2023/05/11 05:57:54;;;;;;;;;;;;;;;;;;4950180;28;20020;-95
2023/05/11 06:03:14;;;;;;;;;;;;;;;;;;4972884;28;20342;-94
2023/05/11 06:05:40;;;;;;;;;;;;;;;;;;4958368;28;19922;-94
2023/05/11 06:08:06;;;;;;;;;;;;;;;;;;4949737;29;19927;-92
2023/05/11 06:10:32;;;;;;;;;;;;;;;;;;4948890;28;19929;-93
2023/05/11 06:12:58;;;;;;;;;;;;;;;;;;4950059;28;19930;-91
2023/05/11 06:15:24;;;;;;;;;;;;;;;;;;4946951;28;19930;-91
2023/05/11 06:17:50;;;;;;;;;;;;;;;;;;4956924;28;19947;-92
2023/05/11 06:20:16;;;;;;;;;;;;;;;;;;4970000;28;20049;-90
2023/05/11 06:22:41;;;;;;;;;;;;;;;;;;4952876;28;20380;-91
2023/05/11 06:25:07;;;;;;;;;;;;;;;;;;4945583;28;19922;-91
2023/05/11 06:27:33;;;;;;;;;;;;;;;;;;4948916;28;20367;-91
2023/05/11 06:29:59;;;;;;;;;;;;;;;;;;4947873;28;19926;-90
2023/05/11 06:32:25;;;;;;;;;;;;;;;;;;4950303;28;19922;-90
2023/05/11 06:34:51;;;;;;;;;;;;;;;;;;4945677;28;20372;-90
2023/05/11 06:37:20;;;;;;;;;;;;;;;;;;4946830;28;19954;-90
2023/05/11 06:39:46;;;;;;;;;;;;;;;;;;4945969;28;20319;-90
2023/05/11 06:42:12;;;;;;;;;;;;;;;;;;4962174;28;20184;-90
2023/05/11 06:44:40;;;;;;;;;;;;;;;;;;4949109;28;19922;-89
2023/05/11 06:47:05;;;;;;;;;;;;;;;;;;4949118;28;19922;-90
2023/05/11 06:49:31;;;;;;;;;;;;;;;;;;4949752;28;19930;-91
2023/05/11 06:51:59;;;;;;;;;;;;;;;;;;4957233;28;20446;-90
2023/05/11 06:54:27;;;;;;;;;;;;;;;;;;4955698;28;19938;-89
2023/05/11 06:57:03;;;;;;;;;;;;;;;;;;4953109;28;19922;-87
2023/05/11 06:59:29;;;;;;;;;;;;;;;;;;4940816;28;19935;-89
2023/05/11 07:02:08;;;;;;;;;;;;;;;;;;4957469;28;20025;-90
2023/05/11 07:04:34;;;;;;;;;;;;;;;;;;4957414;28;19926;-90
2023/05/11 07:07:00;;;;;;;;;;;;;;;;;;4958030;28;19930;-89
2023/05/11 07:09:41;;;;;;;;;;;;;;;;;;4957506;28;19968;-90
2023/05/11 07:12:07;;;;;;;;;;;;;;;;;;4957398;28;19922;-90
2023/05/11 07:14:33;;;;;;;;;;;;;;;;;;4973462;28;19969;-92
2023/05/11 07:16:59;;;;;;;;;;;;;;;;;;4953048;28;19973;-89
2023/05/11 07:19:26;;;;;;;;;;;;;;;;;;4954556;28;19993;-89
2023/05/11 07:21:51;;;;;;;;;;;;;;;;;;4957278;28;19926;-88
2023/05/11 07:24:17;;;;;;;;;;;;;;;;;;4955552;28;19926;-89
2023/05/11 07:26:43;;;;;;;;;;;;;;;;;;4957557;28;19973;-90
2023/05/11 07:29:09;;;;;;;;;;;;;;;;;;4955443;28;19922;-89
2023/05/11 07:31:36;;;;;;;;;;;;;;;;;;4955198;28;20370;-89
2023/05/11 07:34:03;;;;;;;;;;;;;;;;;;4958518;28;20390;-89
2023/05/11 07:36:29;;;;;;;;;;;;;;;;;;4953316;28;19929;-89
2023/05/11 07:38:56;;;;;;;;;;;;;;;;;;4964515;28;19934;-89
2023/05/11 07:41:25;;;;;;;;;;;;;;;;;;4956272;28;20300;-90
2023/05/11 07:43:51;;;;;;;;;;;;;;;;;;4959757;28;19922;-86
2023/05/11 07:46:17;;;;;;;;;;;;;;;;;;4971499;28;20390;-88
2023/05/11 07:48:43;;;;;;;;;;;;;;;;;;4953600;28;19922;-88
2023/05/11 07:51:09;;;;;;;;;;;;;;;;;;4957201;28;19944;-88
2023/05/11 07:53:35;;;;;;;;;;;;;;;;;;4959553;28;19922;-89
2023/05/11 07:56:02;;;;;;;;;;;;;;;;;;4944076;29;19929;-89
2023/05/11 07:58:28;;;;;;;;;;;;;;;;;;4940975;29;20401;-89
2023/05/11 08:00:54;;;;;;;;;;;;;;;;;;4944275;28;19922;-89
2023/05/11 08:03:20;;;;;;;;;;;;;;;;;;4964547;28;19922;-89
2023/05/11 08:05:46;;;;;;;;;;;;;;;;;;4959300;28;19928;-88
2023/05/11 08:08:12;;;;;;;;;;;;;;;;;;4951131;29;19980;-89
2023/05/11 08:10:38;;;;;;;;;;;;;;;;;;4950041;28;19922;-87
2023/05/11 08:13:04;;;;;;;;;;;;;;;;;;4960611;28;20006;-88
2023/05/11 08:15:30;;;;;;;;;;;;;;;;;;4959690;28;20016;-89
2023/05/11 08:17:56;;;;;;;;;;;;;;;;;;4963691;28;19926;-90
2023/05/11 08:20:22;;;;;;;;;;;;;;;;;;4954841;28;20334;-89
2023/05/11 08:22:48;;;;;;;;;;;;;;;;;;4995744;28;19922;-90
2023/05/11 08:25:15;;;;;;;;;;;;;;;;;;4979810;28;19922;-89
2023/05/11 08:27:40;;;;;;;;;;;;;;;;;;4974409;28;19965;-90
2023/05/11 08:30:08;;;;;;;;;;;;;;;;;;4968336;28;19933;-88
2023/05/11 08:32:34;;;;;;;;;;;;;;;;;;4960585;28;19922;-88
2023/05/11 08:35:00;;;;;;;;;;;;;;;;;;4960624;28;20294;-89
2023/05/11 08:37:26;;;;;;;;;;;;;;;;;;4960017;28;19928;-89
2023/05/11 08:39:52;;;;;;;;;;;;;;;;;;4974896;28;19976;-88
2023/05/11 08:42:18;;;;;;;;;;;;;;;;;;4959626;28;20053;-88
2023/05/11 08:44:44;;;;;;;;;;;;;;;;;;4958433;28;20413;-87
2023/05/11 08:47:10;;;;;;;;;;;;;;;;;;4951949;28;19945;-88
2023/05/11 08:49:36;;;;;;;;;;;;;;;;;;4955679;28;19922;-88
2023/05/11 08:52:02;;;;;;;;;;;;;;;;;;4953793;28;19922;-89
2023/05/11 08:54:28;;;;;;;;;;;;;;;;;;4963107;28;20383;-89
2023/05/11 08:56:53;;;;;;;;;;;;;;;;;;4953542;28;19926;-89
2023/05/11 08:59:19;;;;;;;;;;;;;;;;;;4971602;28;20040;-88
2023/05/11 09:01:45;;;;;;;;;;;;;;;;;;4972642;28;20383;-88
2023/05/11 09:04:11;;;;;;;;;;;;;;;;;;4957725;28;20006;-88
2023/05/11 09:06:46;;;;;;;;;;;;;;;;;;4957458;28;20353;-91
2023/05/11 09:09:11;;;;;;;;;;;;;;;;;;4960693;28;19922;-92
2023/05/11 09:11:37;;;;;;;;;;;;;;;;;;4961611;28;19929;-88
2023/05/11 09:14:03;;;;;;;;;;;;;;;;;;4957134;28;19930;-89
2023/05/11 09:16:32;;;;;;;;;;;;;;;;;;4958551;28;19921;-89
2023/05/11 09:18:58;;;;;;;;;;;;;;;;;;4974734;28;19930;-88
2023/05/11 09:21:24;;;;;;;;;;;;;;;;;;4958062;28;19972;-88
2023/05/11 09:23:51;;;;;;;;;;;;;;;;;;4962589;28;20270;-88
2023/05/11 09:26:18;;;;;;;;;;;;;;;;;;4973900;28;19974;-90
2023/05/11 09:31:47;;;;;;;;;;;;;;;;;;4974838;28;19969;-89
2023/05/11 09:34:16;;;;;;;;;;;;;;;;;;4954518;28;19930;-88
2023/05/11 09:36:42;;;;;;;;;;;;;;;;;;4973706;28;19922;-90
2023/05/11 09:39:08;;;;;;;;;;;;;;;;;;4955888;28;19992;-87
2023/05/11 09:41:44;;;;;;;;;;;;;;;;;;4970083;28;19965;-94
2023/05/11 09:44:10;;;;;;;;;;;;;;;;;;4960431;28;19922;-90
2023/05/11 09:46:37;;;;;;;;;;;;;;;;;;4958765;28;19929;-90
2023/05/11 09:49:03;;;;;;;;;;;;;;;;;;4956365;28;20402;-88
2023/05/11 09:51:32;;;;;;;;;;;;;;;;;;4955181;28;19922;-94
2023/05/11 09:53:58;;;;;;;;;;;;;;;;;;4954770;28;19929;-94
2023/05/11 09:56:24;;;;;;;;;;;;;;;;;;4978511;28;19922;-94
2023/05/11 09:58:51;;;;;;;;;;;;;;;;;;4958032;28;19989;-94
2023/05/11 10:01:17;;;;;;;;;;;;;;;;;;4958619;28;19926;-91
2023/05/11 10:03:43;;;;;;;;;;;;;;;;;;4956614;28;19984;-91
2023/05/11 10:06:09;;;;;;;;;;;;;;;;;;4956362;28;19977;-91
2023/05/11 10:08:34;;;;;;;;;;;;;;;;;;4954742;28;19933;-91
2023/05/11 10:11:02;;;;;;;;;;;;;;;;;;4954084;28;20355;-90
2023/05/11 10:13:27;;;;;;;;;;;;;;;;;;4951715;28;20425;-91
2023/05/11 10:15:53;;;;;;;;;;;;;;;;;;4950060;28;19922;-91
2023/05/11 10:18:20;;;;;;;;;;;;;;;;;;4961997;28;19980;-91
2023/05/11 10:20:45;;;;;;;;;;;;;;;;;;4948855;28;19926;-92
2023/05/11 10:23:12;;;;;;;;;;;;;;;;;;4945279;28;20013;-92
2023/05/11 10:25:38;;;;;;;;;;;;;;;;;;4949450;28;19929;-92
2023/05/11 10:28:05;;;;;;;;;;;;;;;;;;4949264;28;19922;-91
2023/05/11 10:30:31;;;;;;;;;;;;;;;;;;4972747;28;19922;-92
2023/05/11 10:32:57;;;;;;;;;;;;;;;;;;4955223;28;19925;-92
2023/05/11 10:35:23;;;;;;;;;;;;;;;;;;4951519;28;20028;-92
2023/05/11 10:37:49;;;;;;;;;;;;;;;;;;4955752;28;19922;-92
2023/05/11 10:40:15;;;;;;;;;;;;;;;;;;4956761;28;19973;-91
2023/05/11 10:42:41;;;;;;;;;;;;;;;;;;4955318;28;19969;-92
2023/05/11 10:45:07;;;;;;;;;;;;;;;;;;4956274;28;19926;-92
2023/05/11 10:47:33;;;;;;;;;;;;;;;;;;4963821;28;20291;-92
2023/05/11 10:49:59;;;;;;;;;;;;;;;;;;4946534;28;19922;-91
2023/05/11 10:52:25;;;;;;;;;;;;;;;;;;4954896;28;19926;-92
2023/05/11 10:54:51;;;;;;;;;;;;;;;;;;4956726;28;20034;-91
2023/05/11 10:57:17;;;;;;;;;;;;;;;;;;4955928;28;19989;-90
2023/05/11 10:59:43;;;;;;;;;;;;;;;;;;4954596;28;20445;-88
2023/05/11 11:02:09;;;;;;;;;;;;;;;;;;4953310;28;19968;-90
2023/05/11 11:04:35;;;;;;;;;;;;;;;;;;4947583;28;19929;-88
2023/05/11 11:07:01;;;;;;;;;;;;;;;;;;4954227;28;19922;-89
2023/05/11 11:09:27;;;;;;;;;;;;;;;;;;4959602;28;19936;-91
2023/05/11 11:11:52;;;;;;;;;;;;;;;;;;4959630;28;19921;-90
2023/05/11 11:14:18;;;;;;;;;;;;;;;;;;4955840;28;20393;-88
2023/05/11 11:16:45;;;;;;;;;;;;;;;;;;4973413;28;19922;-89
2023/05/11 11:19:11;;;;;;;;;;;;;;;;;;4958438;28;19926;-88
2023/05/11 11:21:36;;;;;;;;;;;;;;;;;;4958792;28;19956;-90
2023/05/11 11:24:02;;;;;;;;;;;;;;;;;;4958281;28;20286;-90
2023/05/11 11:26:28;;;;;;;;;;;;;;;;;;4957899;28;20334;-89
2023/05/11 11:29:00;;;;;;;;;;;;;;;;;;4956323;28;20012;-90
2023/05/11 11:31:26;;;;;;;;;;;;;;;;;;4955335;28;19922;-90
2023/05/11 11:33:52;;;;;;;;;;;;;;;;;;4958723;28;19985;-90
2023/05/11 11:36:18;;;;;;;;;;;;;;;;;;4958358;28;19945;-94
2023/05/11 11:38:45;;;;;;;;;;;;;;;;;;4958838;28;19930;-91
2023/05/11 11:41:11;;;;;;;;;;;;;;;;;;4959628;28;19989;-93
2023/05/11 11:43:38;;;;;;;;;;;;;;;;;;4959045;28;20498;-93
2023/05/11 11:46:04;;;;;;;;;;;;;;;;;;4960528;28;19929;-89
2023/05/11 11:48:30;;;;;;;;;;;;;;;;;;4960256;28;19981;-92
2023/05/11 11:50:59;;;;;;;;;;;;;;;;;;4959420;28;19928;-91
2023/05/11 11:53:24;;;;;;;;;;;;;;;;;;4958437;28;19922;-92
2023/05/11 11:55:50;;;;;;;;;;;;;;;;;;4959110;28;19929;-89
2023/05/11 11:58:16;;;;;;;;;;;;;;;;;;4958583;28;19926;-92
2023/05/11 12:00:42;;;;;;;;;;;;;;;;;;4958649;28;19981;-92
2023/05/11 12:03:08;;;;;;;;;;;;;;;;;;4959084;28;20009;-93
2023/05/11 12:05:34;;;;;;;;;;;;;;;;;;4959374;28;19929;-93
2023/05/11 12:08:00;;;;;;;;;;;;;;;;;;4955790;28;19929;-93
2023/05/11 12:10:26;;;;;;;;;;;;;;;;;;4960640;28;20009;-92
2023/05/11 12:12:53;;;;;;;;;;;;;;;;;;4958496;28;20012;-89
2023/05/11 12:15:19;;;;;;;;;;;;;;;;;;4973815;28;19962;-91
2023/05/11 12:17:45;;;;;;;;;;;;;;;;;;4958576;28;19979;-91
2023/05/11 12:20:11;;;;;;;;;;;;;;;;;;4958077;28;19928;-91
2023/05/11 12:22:37;;;;;;;;;;;;;;;;;;4959734;28;19926;-90
2023/05/11 12:25:03;;;;;;;;;;;;;;;;;;4957791;28;19937;-90
2023/05/11 12:27:29;;;;;;;;;;;;;;;;;;4958470;28;19948;-90
2023/05/11 12:29:56;;;;;;;;;;;;;;;;;;4952698;28;20364;-93
2023/05/11 12:32:22;;;;;;;;;;;;;;;;;;4958878;28;19922;-89
2023/05/11 12:34:47;;;;;;;;;;;;;;;;;;4957441;28;19953;-92
2023/05/11 12:37:13;;;;;;;;;;;;;;;;;;4957155;28;19929;-89
2023/05/11 12:39:39;;;;;;;;;;;;;;;;;;4956094;28;19937;-90
2023/05/11 12:44:48;;;;;;;;;;;;;;;;;;4976100;28;19922;-92
2023/05/11 12:49:46;;;;;;;;;;;;;;;;;;4971392;28;19929;-91
2023/05/11 12:52:11;;;;;;;;;;;;;;;;;;4959371;28;19922;-92
2023/05/11 12:54:37;;;;;;;;;;;;;;;;;;4959927;28;20016;-93
2023/05/11 12:57:06;;;;;;;;;;;;;;;;;;4959705;28;19938;-91
2023/05/11 12:59:32;;;;;;;;;;;;;;;;;;4959503;28;19962;-91
2023/05/11 13:01:58;;;;;;;;;;;;;;;;;;4959436;28;20391;-92
2023/05/11 13:04:24;;;;;;;;;;;;;;;;;;4959497;28;19922;-91
2023/05/11 13:06:51;;;;;;;;;;;;;;;;;;4959612;28;19922;-91
2023/05/11 13:09:16;;;;;;;;;;;;;;;;;;4959455;28;19928;-91
2023/05/11 13:11:42;;;;;;;;;;;;;;;;;;4959244;28;20012;-91
2023/05/11 13:14:08;;;;;;;;;;;;;;;;;;4968344;28;19980;-91
2023/05/11 13:16:34;;;;;;;;;;;;;;;;;;4959087;28;19922;-91
2023/05/11 13:19:00;;;;;;;;;;;;;;;;;;4959141;28;19934;-91
2023/05/11 13:21:28;;;;;;;;;;;;;;;;;;4959035;28;19922;-91
2023/05/11 13:23:54;;;;;;;;;;;;;;;;;;4975192;28;20363;-91
2023/05/11 13:26:23;;;;;;;;;;;;;;;;;;4959034;28;19929;-91
2023/05/11 13:28:49;;;;;;;;;;;;;;;;;;4959137;28;19977;-91
2023/05/11 13:31:15;;;;;;;;;;;;;;;;;;4958190;28;19922;-91
2023/05/11 13:33:41;;;;;;;;;;;;;;;;;;4955334;28;19939;-94
2023/05/11 13:36:07;;;;;;;;;;;;;;;;;;4956531;28;19933;-90
2023/05/11 13:38:33;;;;;;;;;;;;;;;;;;4956626;28;20283;-90
2023/05/11 13:40:59;;;;;;;;;;;;;;;;;;4972685;28;19923;-90
2023/05/11 13:43:25;;;;;;;;;;;;;;;;;;4956909;28;19945;-92
2023/05/11 13:45:51;;;;;;;;;;;;;;;;;;4956552;28;19922;-92
2023/05/11 13:48:16;;;;;;;;;;;;;;;;;;4956290;28;20354;-91
2023/05/11 13:50:42;;;;;;;;;;;;;;;;;;4956759;28;20298;-93
2023/05/11 13:53:08;;;;;;;;;;;;;;;;;;4953478;28;20016;-94
2023/05/11 13:55:34;;;;;;;;;;;;;;;;;;4956909;28;20301;-92
2023/05/11 13:58:00;;;;;;;;;;;;;;;;;;4956819;28;20073;-90
2023/05/11 14:00:26;;;;;;;;;;;;;;;;;;4956416;28;20327;-91
2023/05/11 14:02:52;;;;;;;;;;;;;;;;;;4972367;28;19930;-91
2023/05/11 14:05:18;;;;;;;;;;;;;;;;;;4956775;28;19929;-90
2023/05/11 14:07:44;;;;;;;;;;;;;;;;;;4956512;28;19945;-91
2023/05/11 14:10:10;;;;;;;;;;;;;;;;;;4956121;28;20374;-91
2023/05/11 14:12:36;;;;;;;;;;;;;;;;;;4945680;29;19923;-91
2023/05/11 14:15:02;;;;;;;;;;;;;;;;;;4964621;28;19929;-90
2023/05/11 14:17:28;;;;;;;;;;;;;;;;;;4946796;28;19922;-91
2023/05/11 14:19:54;;;;;;;;;;;;;;;;;;4949358;28;19933;-91
2023/05/11 14:22:20;;;;;;;;;;;;;;;;;;4947023;28;20379;-92
2023/05/11 14:24:46;;;;;;;;;;;;;;;;;;4947937;28;19922;-91
2023/05/11 14:27:11;;;;;;;;;;;;;;;;;;4962094;28;20331;-91
2023/05/11 14:29:37;;;;;;;;;;;;;;;;;;4944737;29;19981;-91
2023/05/11 14:32:03;;;;;;;;;;;;;;;;;;4949000;28;20276;-92
2023/05/11 14:34:29;;;;;;;;;;;;;;;;;;4947020;28;19922;-91
2023/05/11 14:36:55;;;;;;;;;;;;;;;;;;4954459;28;19935;-91
2023/05/11 14:39:21;;;;;;;;;;;;;;;;;;4955698;28;19930;-91
2023/05/11 14:41:47;;;;;;;;;;;;;;;;;;4956951;28;19926;-89
2023/05/11 14:44:13;;;;;;;;;;;;;;;;;;4959455;28;19928;-91
2023/05/11 14:46:39;;;;;;;;;;;;;;;;;;4959589;28;19922;-91
2023/05/11 14:49:05;;;;;;;;;;;;;;;;;;4960100;28;20010;-91
2023/05/11 14:51:31;;;;;;;;;;;;;;;;;;4958756;28;20379;-91
2023/05/11 14:53:57;;;;;;;;;;;;;;;;;;4957606;28;19968;-90
2023/05/11 14:56:23;;;;;;;;;;;;;;;;;;4957726;28;20036;-91
2023/05/11 14:58:49;;;;;;;;;;;;;;;;;;4959735;28;19932;-91
2023/05/11 15:01:15;;;;;;;;;;;;;;;;;;4974014;28;19930;-91
2023/05/11 15:03:41;;;;;;;;;;;;;;;;;;4962556;28;19922;-91
2023/05/11 15:06:07;;;;;;;;;;;;;;;;;;4975796;28;19926;-91
2023/05/11 15:08:33;;;;;;;;;;;;;;;;;;4958837;28;19922;-91
2023/05/11 15:10:59;;;;;;;;;;;;;;;;;;4959325;28;19954;-90
2023/05/11 15:13:37;;;;;;;;;;;;;;;;;;4957409;28;19930;-91
2023/05/11 15:16:03;;;;;;;;;;;;;;;;;;4958961;28;19930;-91
2023/05/11 15:18:29;;;;;;;;;;;;;;;;;;4960048;28;20402;-91
2023/05/11 15:20:55;;;;;;;;;;;;;;;;;;4959235;28;19922;-91
2023/05/11 15:23:21;;;;;;;;;;;;;;;;;;4956768;28;19925;-91
2023/05/11 15:25:47;;;;;;;;;;;;;;;;;;4958942;28;20115;-91
2023/05/11 15:28:13;;;;;;;;;;;;;;;;;;4958542;28;19926;-92
2023/05/11 15:30:40;;;;;;;;;;;;;;;;;;4959014;28;20188;-91
2023/05/11 15:33:07;;;;;;;;;;;;;;;;;;4958030;28;19926;-91
2023/05/11 15:35:33;;;;;;;;;;;;;;;;;;4959425;28;19988;-91
2023/05/11 15:38:01;;;;;;;;;;;;;;;;;;4959330;28;20170;-91
2023/05/11 15:40:27;;;;;;;;;;;;;;;;;;4958926;28;19977;-91
2023/05/11 15:42:56;;;;;;;;;;;;;;;;;;4957522;28;19932;-91
2023/05/11 15:45:35;;;;;;;;;;;;;;;;;;4956873;28;19933;-91
2023/05/11 15:53:59;;;;;;;;;;;;;;;;;;4976156;28;19922;-96
2023/05/11 15:56:53;;;;;;;;;;;;;;;;;;4967637;28;19973;-96
2023/05/11 15:59:52;;;;;;;;;;;;;;;;;;;;;
2023/05/11 16:02:34;;;;;;;;;;;;;;;;;;4955787;28;19987;-96
2023/05/11 16:05:25;;;;;;;;;;;;;;;;;;4935887;29;19938;-96
2023/05/11 16:07:54;;;;;;;;;;;;;;;;;;4908317;29;19958;-95
2023/05/11 16:10:27;;;;;;;;;;;;;;;;;;4901869;29;20263;-95
2023/05/11 16:12:53;;;;;;;;;;;;;;;;;;4904510;29;19931;-96
2023/05/11 16:15:19;;;;;;;;;;;;;;;;;;4911711;28;19977;-96
2023/05/11 16:17:46;;;;;;;;;;;;;;;;;;4955974;28;20356;-92
2023/05/11 16:20:12;;;;;;;;;;;;;;;;;;4951783;28;20005;-96
2023/05/11 16:22:39;;;;;;;;;;;;;;;;;;4955600;28;20452;-95
2023/05/11 16:25:09;;;;;;;;;;;;;;;;;;4955921;28;19928;-94
2023/05/11 16:27:35;;;;;;;;;;;;;;;;;;4955444;28;19972;-95
2023/05/11 16:30:02;;;;;;;;;;;;;;;;;;4956556;28;19933;-96
2023/05/11 16:32:28;;;;;;;;;;;;;;;;;;4954201;28;19923;-96
2023/05/11 16:34:57;;;;;;;;;;;;;;;;;;4951450;28;19972;-95
2023/05/11 16:37:23;;;;;;;;;;;;;;;;;;4953023;28;20005;-93
2023/05/11 16:39:49;;;;;;;;;;;;;;;;;;4958472;28;19933;-96
2023/05/11 16:42:15;;;;;;;;;;;;;;;;;;4946368;28;19922;-96
2023/05/11 16:44:47;;;;;;;;;;;;;;;;;;4941206;28;22222;-96
2023/05/11 16:47:24;;;;;;;;;;;;;;;;;;4975944;28;19926;-96
2023/05/11 16:49:50;;;;;;;;;;;;;;;;;;4955128;28;19929;-96
2023/05/11 16:52:19;;;;;;;;;;;;;;;;;;4951708;28;19961;-96
2023/05/11 16:54:46;;;;;;;;;;;;;;;;;;4949851;28;19923;-96
2023/05/11 16:57:12;;;;;;;;;;;;;;;;;;4953165;28;20323;-96